This is the latest recevied weather packets stored in our database for station/object KA1CNF. If no packets are shown the sender has not sent any weather packets the latest 10 day(s).
| Time | Temp. | Humidity | Pressure | Rain* | Wind** | Luminosity | Snow |
|---|---|---|---|---|---|---|---|
| 1777426236 | 13.89° C | 77% | 1011.3 hPa | 0 mm | - | 0 W/m² | - |
| 1777413616 | 17.22° C | 66% | 1010.8 hPa | 0 mm | - | 40 W/m² | - |
| 1777408236 | 18.33° C | 61% | 1010.5 hPa | 0 mm | - | 234 W/m² | - |
| 1777402816 | 16.11° C | 64% | 1011.3 hPa | 0 mm | - | 187 W/m² | - |
| 1777395637 | 16.11° C | 62% | 1011.2 hPa | 0 mm | - | 180 W/m² | - |
| 1777390218 | 16.67° C | 54% | 1011.6 hPa | 0 mm | - | 166 W/m² | - |
| 1777383017 | 16.67° C | 54% | 1010.7 hPa | 0 mm | - | 273 W/m² | - |
| 1777379457 | 15° C | 59% | 1010.9 hPa | 0 mm | - | 93 W/m² | - |
| 1777375816 | 15° C | 61% | 1011.1 hPa | 0 mm | - | 106 W/m² | - |
| 1777368616 | 15° C | 61% | 1012.3 hPa | 0 mm | - | 0 W/m² | - |
| 1777363216 | 15.56° C | 60% | 1013.1 hPa | 0 mm | - | 0 W/m² | - |
| 1777361416 | 15.56° C | 60% | 1013.4 hPa | 0 mm | - | 0 W/m² | - |
| 1777339818 | 13.89° C | 63% | 1017.4 hPa | 0 mm | - | 0 W/m² | - |
| 1777336216 | 15.56° C | 63% | 1017.4 hPa | 0 mm | - | 0 W/m² | - |
| 1777334416 | 19.44° C | 45% | 1017.4 hPa | 0 mm | - | 13 W/m² | - |
| 1777327217 | 21.67° C | 41% | 1018.1 hPa | 0 mm | - | 258 W/m² | - |
| 1777320016 | 21.67° C | 45% | 1019.4 hPa | 0 mm | - | 297 W/m² | - |
| 1777318216 | 21.11° C | 44% | 1019.7 hPa | 0 mm | - | 309 W/m² | - |
| 1777309215 | 20° C | 48% | 1021.4 hPa | 0 mm | - | 309 W/m² | - |
| 1777303815 | 18.33° C | 52% | 1022.9 hPa | 0 mm | - | 302 W/m² | - |
| 1777284016 | 2.78° C | 95% | 1022 hPa | 0 mm | - | 0 W/m² | - |
| 1777271416 | 3.89° C | 93% | 1021.9 hPa | 0 mm | - | 0 W/m² | - |
| 1777267816 | 4.44° C | 92% | 1021.6 hPa | 0 mm | - | 0 W/m² | - |
| 1777255217 | 7.78° C | 76% | 1021.1 hPa | 0 mm | - | 0 W/m² | - |
* Rain latest hour (hover to see other rain measurements)
** Current wind speed in m/s (hover to see current wind gust speed)